createdAt,value
2019-03-17T00:00:07.459Z,10.40
2019-03-17T00:02:36.044Z,10.40
2019-03-17T00:05:05.652Z,10.50
2019-03-17T00:07:34.238Z,10.40
2019-03-17T00:10:02.862Z,10.40
2019-03-17T00:12:31.718Z,10.40
2019-03-17T00:15:05.314Z,10.40
2019-03-17T00:17:30.549Z,10.40
2019-03-17T00:19:59.110Z,10.40
2019-03-17T00:22:27.702Z,10.40
2019-03-17T00:25:08.180Z,10.40
2019-03-17T00:27:26.502Z,10.50
2019-03-17T00:29:55.074Z,10.50
2019-03-17T00:32:23.687Z,10.50
2019-03-17T00:34:52.251Z,10.50
2019-03-17T00:37:20.835Z,10.60
2019-03-17T00:39:49.447Z,10.60
2019-03-17T00:42:18.038Z,10.50
2019-03-17T00:44:46.603Z,10.60
2019-03-17T00:47:15.188Z,10.60
2019-03-17T00:49:43.758Z,10.60
2019-03-17T00:52:12.351Z,10.60
2019-03-17T00:54:40.919Z,10.60
2019-03-17T00:57:09.506Z,10.70
2019-03-17T00:59:38.070Z,10.70
2019-03-17T01:02:06.667Z,10.70
2019-03-17T01:04:35.234Z,10.70
2019-03-17T01:07:03.816Z,10.70
2019-03-17T01:09:32.379Z,10.70
2019-03-17T01:12:01.338Z,10.70
2019-03-17T01:14:29.906Z,10.70
2019-03-17T01:16:58.495Z,10.70
2019-03-17T01:19:27.060Z,10.60
2019-03-17T01:21:55.678Z,10.60
2019-03-17T01:24:24.339Z,10.70
2019-03-17T01:26:52.907Z,10.70
2019-03-17T01:29:21.498Z,10.60
2019-03-17T01:31:50.061Z,10.60
2019-03-17T01:34:18.641Z,10.60
2019-03-17T01:36:47.278Z,10.60
2019-03-17T01:39:15.871Z,10.70
2019-03-17T01:41:44.434Z,10.60
2019-03-17T01:44:13.022Z,10.70
2019-03-17T01:46:41.586Z,10.60
2019-03-17T01:49:10.174Z,10.60
2019-03-17T01:51:38.751Z,10.60
2019-03-17T01:54:07.408Z,10.60
2019-03-17T01:56:35.962Z,10.60
2019-03-17T01:59:04.622Z,10.50
2019-03-17T02:01:33.194Z,10.50
2019-03-17T02:04:01.790Z,10.40
2019-03-17T02:06:30.354Z,10.40
2019-03-17T02:08:58.949Z,10.30
2019-03-17T02:11:27.538Z,10.30
2019-03-17T02:13:56.104Z,10.30
2019-03-17T02:16:24.668Z,10.30
2019-03-17T02:18:53.255Z,10.20
2019-03-17T02:21:22.094Z,10.20
2019-03-17T02:23:50.688Z,10.20
2019-03-17T02:26:19.240Z,10.20
2019-03-17T02:28:47.826Z,10.20
2019-03-17T02:31:16.395Z,10.20
2019-03-17T02:33:44.990Z,10.20
2019-03-17T02:36:13.565Z,10.10
2019-03-17T02:38:42.157Z,10.10
2019-03-17T02:41:10.715Z,10.10
2019-03-17T02:43:39.451Z,10.10
2019-03-17T02:46:08.028Z,10.10
2019-03-17T02:48:36.606Z,10.10
2019-03-17T02:51:05.178Z,10.10
2019-03-17T02:53:33.768Z,10.10
2019-03-17T02:56:02.331Z,10.10
2019-03-17T02:58:30.926Z,10.10
2019-03-17T03:00:59.487Z,10.20
2019-03-17T03:03:28.075Z,10.20
2019-03-17T03:05:56.663Z,10.20
2019-03-17T03:08:25.244Z,10.20
2019-03-17T03:10:53.798Z,10.20
2019-03-17T03:13:22.387Z,10.20
2019-03-17T03:15:50.946Z,10.20
2019-03-17T03:18:19.540Z,10.30
2019-03-17T03:20:48.122Z,10.30
2019-03-17T03:23:16.683Z,10.30
2019-03-17T03:25:45.270Z,10.30
2019-03-17T03:28:13.840Z,10.30
2019-03-17T03:30:42.423Z,10.30
2019-03-17T03:33:10.992Z,10.30
2019-03-17T03:35:39.579Z,10.30
2019-03-17T03:38:08.171Z,10.30
2019-03-17T03:40:36.755Z,10.30
2019-03-17T03:43:05.333Z,10.30
2019-03-17T03:45:34.022Z,10.30
2019-03-17T03:48:02.599Z,10.30
2019-03-17T03:50:31.175Z,10.30
2019-03-17T03:52:59.748Z,10.30
2019-03-17T03:55:28.333Z,10.30
2019-03-17T03:57:56.977Z,10.30
2019-03-17T04:00:25.559Z,10.30
2019-03-17T04:02:54.144Z,10.30
2019-03-17T04:05:22.722Z,10.30
2019-03-17T04:07:51.295Z,10.30
2019-03-17T04:10:19.891Z,10.30
2019-03-17T04:12:48.462Z,10.30
2019-03-17T04:15:17.051Z,10.30
2019-03-17T04:17:45.621Z,10.30
2019-03-17T04:20:14.214Z,10.30
2019-03-17T04:22:42.767Z,10.20
2019-03-17T04:25:13.136Z,10.30
2019-03-17T04:27:41.699Z,10.30
2019-03-17T04:30:10.959Z,10.30
2019-03-17T04:32:39.530Z,10.30
2019-03-17T04:35:08.189Z,10.30
2019-03-17T04:37:36.751Z,10.30
2019-03-17T04:40:07.085Z,10.30
2019-03-17T04:42:35.660Z,10.30
2019-03-17T04:45:04.720Z,10.30
2019-03-17T04:47:33.278Z,10.30
2019-03-17T04:50:01.886Z,10.30
2019-03-17T04:52:30.438Z,10.20
2019-03-17T04:54:59.022Z,10.20
2019-03-17T04:57:27.927Z,10.10
2019-03-17T04:59:56.514Z,10.00
2019-03-17T05:02:25.079Z,10.00
2019-03-17T05:04:53.669Z,9.90
2019-03-17T05:07:22.223Z,9.90
2019-03-17T05:09:50.806Z,9.80
2019-03-17T05:12:19.358Z,9.80
2019-03-17T05:14:47.951Z,9.80
2019-03-17T05:17:16.519Z,9.80
2019-03-17T05:19:45.287Z,9.80
2019-03-17T05:22:13.774Z,9.80
2019-03-17T05:24:42.352Z,9.80
2019-03-17T05:27:10.915Z,9.80
2019-03-17T05:29:39.477Z,9.80
2019-03-17T05:32:08.063Z,9.70
2019-03-17T05:34:36.627Z,9.70
2019-03-17T05:37:06.804Z,9.70
2019-03-17T05:39:35.575Z,9.70
2019-03-17T05:42:04.450Z,9.70
2019-03-17T05:44:33.014Z,9.60
2019-03-17T05:47:01.589Z,9.60
2019-03-17T05:49:30.173Z,9.60
2019-03-17T05:51:58.799Z,9.60
2019-03-17T05:54:27.358Z,9.60
2019-03-17T05:56:55.942Z,9.60
2019-03-17T05:59:24.511Z,9.60
2019-03-17T06:01:53.103Z,9.50
2019-03-17T06:04:21.985Z,9.50
2019-03-17T06:06:50.561Z,9.50
2019-03-17T06:09:19.128Z,9.50
2019-03-17T06:11:47.708Z,9.40
2019-03-17T06:14:16.308Z,9.40
2019-03-17T06:16:44.896Z,9.40
2019-03-17T06:19:13.452Z,9.40
2019-03-17T06:21:42.039Z,9.30
2019-03-17T06:24:10.598Z,9.30
2019-03-17T06:26:39.297Z,9.30
2019-03-17T06:29:07.875Z,9.20
2019-03-17T06:31:36.461Z,9.20
2019-03-17T06:34:05.262Z,9.20
2019-03-17T06:36:33.851Z,9.10
2019-03-17T06:39:02.423Z,9.10
2019-03-17T06:41:31.003Z,9.00
2019-03-17T06:43:59.571Z,9.00
2019-03-17T06:46:28.154Z,8.90
2019-03-17T06:48:56.708Z,8.90
2019-03-17T06:51:25.295Z,8.80
2019-03-17T06:53:56.592Z,8.80
2019-03-17T06:56:24.085Z,8.80
2019-03-17T06:58:52.649Z,8.90
2019-03-17T07:01:21.227Z,8.90
2019-03-17T07:03:49.783Z,8.90
2019-03-17T07:06:18.372Z,8.90
2019-03-17T07:08:46.947Z,8.90
2019-03-17T07:11:15.657Z,8.90
2019-03-17T07:13:44.186Z,8.90
2019-03-17T07:16:12.778Z,8.90
2019-03-17T07:18:41.343Z,8.90
2019-03-17T07:21:09.921Z,8.90
2019-03-17T07:23:38.487Z,8.90
2019-03-17T07:26:07.078Z,8.90
2019-03-17T07:28:35.637Z,8.90
2019-03-17T07:31:04.357Z,8.90
2019-03-17T07:33:32.915Z,8.90
2019-03-17T07:36:01.481Z,8.90
2019-03-17T07:38:30.058Z,8.90
2019-03-17T07:40:58.620Z,8.90
2019-03-17T07:43:27.198Z,8.90
2019-03-17T07:45:55.768Z,8.90
2019-03-17T07:48:24.346Z,8.90
2019-03-17T07:50:52.911Z,8.90
2019-03-17T07:53:21.487Z,8.90
2019-03-17T07:55:50.056Z,8.90
2019-03-17T07:58:18.638Z,8.90
2019-03-17T08:00:47.199Z,8.90
2019-03-17T08:03:15.787Z,8.90
2019-03-17T08:05:44.342Z,8.90
2019-03-17T08:08:12.923Z,8.90
2019-03-17T08:10:41.483Z,8.80
2019-03-17T08:13:10.071Z,8.80
2019-03-17T08:15:38.638Z,8.80
2019-03-17T08:18:07.228Z,8.50
2019-03-17T08:20:35.789Z,8.00
2019-03-17T08:23:04.383Z,7.60
2019-03-17T08:25:32.946Z,7.30
2019-03-17T08:28:01.526Z,7.00
2019-03-17T08:30:30.091Z,6.90
2019-03-17T08:32:58.680Z,6.80
2019-03-17T08:35:27.247Z,6.70
2019-03-17T08:37:55.827Z,6.70
2019-03-17T08:40:24.392Z,6.70
2019-03-17T08:42:52.982Z,6.70
2019-03-17T08:45:21.545Z,6.70
2019-03-17T08:47:57.974Z,6.60
2019-03-17T08:50:20.339Z,6.60
2019-03-17T08:52:49.002Z,6.50
2019-03-17T08:55:17.494Z,6.50
2019-03-17T08:57:46.084Z,6.40
2019-03-17T09:00:19.976Z,6.40
2019-03-17T09:02:48.634Z,6.50
2019-03-17T09:05:17.197Z,6.50
2019-03-17T09:07:46.075Z,6.60
2019-03-17T09:10:15.534Z,6.60
2019-03-17T09:12:44.159Z,6.70
2019-03-17T09:15:13.067Z,6.70
2019-03-17T09:17:41.844Z,6.80
2019-03-17T09:20:15.052Z,6.80
2019-03-17T09:22:43.638Z,6.90
2019-03-17T09:25:12.440Z,6.90
2019-03-17T09:27:41.013Z,7.00
2019-03-17T09:30:16.374Z,7.00
2019-03-17T09:32:45.041Z,7.00
2019-03-17T09:35:13.695Z,7.00
2019-03-17T09:37:42.279Z,7.10
2019-03-17T09:40:15.629Z,7.10
2019-03-17T09:42:44.351Z,7.20
2019-03-17T09:45:13.826Z,7.30
2019-03-17T09:47:42.545Z,7.30
2019-03-17T09:50:20.879Z,7.30
2019-03-17T09:52:49.462Z,7.30
2019-03-17T09:55:18.162Z,7.40
2019-03-17T09:57:46.813Z,7.40
2019-03-17T10:00:20.213Z,7.40
2019-03-17T10:02:48.821Z,7.50
2019-03-17T10:05:17.463Z,7.50
2019-03-17T10:07:46.090Z,7.40
2019-03-17T10:10:22.704Z,7.40
2019-03-17T10:12:51.287Z,7.40
2019-03-17T10:15:20.227Z,7.50
2019-03-17T10:17:49.146Z,7.60
2019-03-17T10:20:20.892Z,7.60
2019-03-17T10:22:49.557Z,7.70
2019-03-17T10:25:18.196Z,7.80
2019-03-17T10:27:46.827Z,7.80
2019-03-17T10:30:19.239Z,7.90
2019-03-17T10:32:47.789Z,7.90
2019-03-17T10:35:16.374Z,7.90
2019-03-17T10:37:44.933Z,8.10
2019-03-17T10:40:17.149Z,8.00
2019-03-17T10:42:45.783Z,8.00
2019-03-17T10:45:14.939Z,8.00
2019-03-17T10:47:43.648Z,8.00
2019-03-17T10:50:14.728Z,8.10
2019-03-17T10:52:43.360Z,8.10
2019-03-17T10:55:12.286Z,8.20
2019-03-17T10:57:40.852Z,8.20
2019-03-17T11:00:23.009Z,8.20
2019-03-17T11:02:51.639Z,8.30
2019-03-17T11:05:20.580Z,8.30
2019-03-17T11:07:49.256Z,8.40
2019-03-17T11:10:17.908Z,8.50
2019-03-17T11:12:46.470Z,8.50
2019-03-17T11:15:16.431Z,8.60
2019-03-17T11:17:44.992Z,8.60
2019-03-17T11:20:14.015Z,8.60
2019-03-17T11:22:42.579Z,8.60
2019-03-17T11:25:15.803Z,8.60
2019-03-17T11:27:44.432Z,8.60
2019-03-17T11:30:16.805Z,8.60
2019-03-17T11:32:45.372Z,8.50
2019-03-17T11:35:14.018Z,8.50
2019-03-17T11:37:42.587Z,8.50
2019-03-17T11:40:16.023Z,8.50
2019-03-17T11:42:44.661Z,8.50
2019-03-17T11:45:14.381Z,8.60
2019-03-17T11:47:43.179Z,8.70
2019-03-17T11:50:16.378Z,8.80
2019-03-17T11:52:45.188Z,8.80
2019-03-17T11:55:13.912Z,8.90
2019-03-17T11:57:42.540Z,8.90
2019-03-17T12:00:19.685Z,8.90
2019-03-17T12:02:48.251Z,8.90
2019-03-17T12:05:16.899Z,8.80
2019-03-17T12:07:45.524Z,8.70
2019-03-17T12:10:15.751Z,8.60
2019-03-17T12:12:44.317Z,8.40
2019-03-17T12:15:27.201Z,8.00
2019-03-17T12:17:55.859Z,7.50
2019-03-17T12:20:24.438Z,7.20
2019-03-17T12:22:52.996Z,7.10
2019-03-17T12:25:21.646Z,7.00
2019-03-17T12:27:50.278Z,7.10
2019-03-17T12:30:25.340Z,7.20
2019-03-17T12:32:54.742Z,7.30
2019-03-17T12:35:23.618Z,7.50
2019-03-17T12:37:52.542Z,7.70
2019-03-17T12:40:21.857Z,8.00
2019-03-17T12:42:51.001Z,8.30
2019-03-17T12:45:20.285Z,8.50
2019-03-17T12:47:49.130Z,8.70
2019-03-17T12:50:19.561Z,8.80
2019-03-17T12:52:48.120Z,8.90
2019-03-17T12:55:16.684Z,9.00
2019-03-17T12:57:45.266Z,9.10
2019-03-17T13:00:16.039Z,9.30
2019-03-17T13:02:44.628Z,9.40
2019-03-17T13:05:13.850Z,9.40
2019-03-17T13:07:42.493Z,9.30
2019-03-17T13:10:16.522Z,9.30
2019-03-17T13:12:45.418Z,9.30
2019-03-17T13:15:14.066Z,9.20
2019-03-17T13:17:42.656Z,9.20
2019-03-17T13:20:18.782Z,9.20
2019-03-17T13:22:47.378Z,9.20
2019-03-17T13:25:15.938Z,9.20
2019-03-17T13:27:44.558Z,9.10
2019-03-17T13:30:17.917Z,9.00
2019-03-17T13:32:46.625Z,8.90
2019-03-17T13:35:15.260Z,8.80
2019-03-17T13:37:43.837Z,8.70
2019-03-17T13:40:28.814Z,8.50
2019-03-17T13:42:49.918Z,7.90
2019-03-17T13:45:18.465Z,7.10
2019-03-17T13:47:47.055Z,6.70
2019-03-17T13:50:20.311Z,6.50
2019-03-17T13:52:48.899Z,6.60
2019-03-17T13:55:17.637Z,6.70
2019-03-17T13:58:01.071Z,6.90
2019-03-17T14:00:29.644Z,7.00
2019-03-17T14:02:58.233Z,7.10
2019-03-17T14:05:26.799Z,7.10
2019-03-17T14:07:55.456Z,7.10
2019-03-17T14:10:24.022Z,7.10
2019-03-17T14:12:52.615Z,7.20
2019-03-17T14:15:21.178Z,7.30
2019-03-17T14:17:49.767Z,7.40
2019-03-17T14:20:20.873Z,7.60
2019-03-17T14:22:49.815Z,7.60
2019-03-17T14:25:27.406Z,7.60
2019-03-17T14:27:55.987Z,7.60
2019-03-17T14:30:24.553Z,7.50
2019-03-17T14:32:53.146Z,7.40
2019-03-17T14:35:22.093Z,7.10
2019-03-17T14:37:50.723Z,6.80
2019-03-17T14:40:20.332Z,6.50
2019-03-17T14:42:50.157Z,6.30
2019-03-17T14:45:18.787Z,6.20
2019-03-17T14:47:47.446Z,6.20
2019-03-17T14:50:22.505Z,6.20
2019-03-17T14:52:51.162Z,6.20
2019-03-17T14:55:19.792Z,6.30
2019-03-17T14:57:48.378Z,6.30
2019-03-17T15:00:20.985Z,6.60
2019-03-17T15:02:49.570Z,7.00
2019-03-17T15:05:18.131Z,7.40
2019-03-17T15:07:47.094Z,8.00
2019-03-17T15:10:20.541Z,8.80
2019-03-17T15:12:49.119Z,9.60
2019-03-17T15:15:18.923Z,10.20
2019-03-17T15:17:47.643Z,10.90
2019-03-17T15:20:18.622Z,11.40
2019-03-17T15:22:47.287Z,11.70
2019-03-17T15:25:15.878Z,12.00
2019-03-17T15:27:44.476Z,12.40
2019-03-17T15:30:16.119Z,12.40
2019-03-17T15:32:44.715Z,11.70
2019-03-17T15:35:14.214Z,10.60
2019-03-17T15:37:42.804Z,9.80
2019-03-17T15:40:16.244Z,9.20
2019-03-17T15:42:44.833Z,8.80
2019-03-17T15:45:19.368Z,8.50
2019-03-17T15:47:47.951Z,8.50
2019-03-17T15:50:21.411Z,8.40
2019-03-17T15:52:49.995Z,8.50
2019-03-17T15:55:18.548Z,9.20
2019-03-17T15:57:47.205Z,10.00
2019-03-17T16:00:25.505Z,10.60
2019-03-17T16:02:52.495Z,10.90
2019-03-17T16:05:21.501Z,11.10
2019-03-17T16:07:50.172Z,11.30
2019-03-17T16:10:21.819Z,11.30
2019-03-17T16:12:50.470Z,11.10
2019-03-17T16:15:19.103Z,10.70
2019-03-17T16:17:47.690Z,10.30
2019-03-17T16:20:17.987Z,10.00
2019-03-17T16:22:46.574Z,9.60
2019-03-17T16:25:25.861Z,9.40
2019-03-17T16:27:54.445Z,9.20
2019-03-17T16:30:31.100Z,9.00
2019-03-17T16:32:59.761Z,8.90
2019-03-17T16:35:28.311Z,8.80
2019-03-17T16:37:56.979Z,8.70
2019-03-17T16:40:33.617Z,8.60
2019-03-17T16:43:02.212Z,8.60
2019-03-17T16:45:30.774Z,8.50
2019-03-17T16:47:59.410Z,8.50
2019-03-17T16:50:27.986Z,8.50
2019-03-17T16:52:56.550Z,8.40
2019-03-17T16:55:25.168Z,8.40
2019-03-17T16:57:53.709Z,8.30
2019-03-17T17:00:25.609Z,8.30
2019-03-17T17:02:54.238Z,8.20
2019-03-17T17:05:26.450Z,8.10
2019-03-17T17:07:55.016Z,8.00
2019-03-17T17:10:30.263Z,7.90
2019-03-17T17:12:58.754Z,7.80
2019-03-17T17:15:34.589Z,7.80
2019-03-17T17:18:03.153Z,7.70
2019-03-17T17:20:32.773Z,7.70
2019-03-17T17:23:01.399Z,7.60
2019-03-17T17:25:29.987Z,7.60
2019-03-17T17:27:58.548Z,7.50
2019-03-17T17:30:27.141Z,7.50
2019-03-17T17:32:55.698Z,7.40
2019-03-17T17:35:24.301Z,7.30
2019-03-17T17:37:52.860Z,7.20
2019-03-17T17:40:25.469Z,7.10
2019-03-17T17:42:54.030Z,7.10
2019-03-17T17:45:26.316Z,7.00
2019-03-17T17:47:54.891Z,7.00
2019-03-17T17:50:24.611Z,6.90
2019-03-17T17:52:53.174Z,6.90
2019-03-17T17:55:21.763Z,6.80
2019-03-17T17:57:52.629Z,6.80
2019-03-17T18:00:25.610Z,6.70
2019-03-17T18:02:54.172Z,6.70
2019-03-17T18:05:22.741Z,6.60
2019-03-17T18:07:51.310Z,6.60
2019-03-17T18:10:20.067Z,6.50
2019-03-17T18:12:48.694Z,6.50
2019-03-17T18:15:26.041Z,6.50
2019-03-17T18:17:54.603Z,6.40
2019-03-17T18:20:23.296Z,6.40
2019-03-17T18:22:52.257Z,6.30
2019-03-17T18:25:22.535Z,6.30
2019-03-17T18:27:51.178Z,6.20
2019-03-17T18:30:21.750Z,6.20
2019-03-17T18:32:50.318Z,6.20
2019-03-17T18:35:18.943Z,6.10
2019-03-17T18:37:47.468Z,6.10
2019-03-17T18:40:19.678Z,6.10
2019-03-17T18:42:48.311Z,6.10
2019-03-17T18:45:28.142Z,6.10
2019-03-17T18:47:57.724Z,6.10
2019-03-17T18:50:26.575Z,6.10
2019-03-17T18:52:55.306Z,6.10
2019-03-17T18:55:23.900Z,6.10
2019-03-17T18:57:52.493Z,6.10
2019-03-17T19:00:23.054Z,6.20
2019-03-17T19:02:51.731Z,6.20
2019-03-17T19:05:22.895Z,6.20
2019-03-17T19:07:51.495Z,6.20
2019-03-17T19:10:20.818Z,6.20
2019-03-17T19:12:49.387Z,6.20
2019-03-17T19:15:24.682Z,6.20
2019-03-17T19:17:53.263Z,6.10
2019-03-17T19:20:23.826Z,6.10
2019-03-17T19:22:52.409Z,6.10
2019-03-17T19:25:25.605Z,6.10
2019-03-17T19:27:54.169Z,6.10
2019-03-17T19:30:23.373Z,6.00
2019-03-17T19:32:51.960Z,6.00
2019-03-17T19:35:20.534Z,5.90
2019-03-17T19:37:49.114Z,5.90
2019-03-17T19:40:23.942Z,5.90
2019-03-17T19:42:59.201Z,5.80
2019-03-17T19:45:22.906Z,5.80
2019-03-17T19:47:51.490Z,5.80
2019-03-17T19:50:21.851Z,5.70
2019-03-17T19:52:50.443Z,5.70
2019-03-17T19:55:19.004Z,5.70
2019-03-17T19:57:47.654Z,5.60
2019-03-17T20:00:17.163Z,5.60
2019-03-17T20:02:47.801Z,5.60
2019-03-17T20:05:16.190Z,5.60
2019-03-17T20:07:44.848Z,5.60
2019-03-17T20:10:27.453Z,5.60
2019-03-17T20:12:56.101Z,5.60
2019-03-17T20:15:24.664Z,5.60
2019-03-17T20:17:53.328Z,5.60
2019-03-17T20:20:21.900Z,5.60
2019-03-17T20:22:50.509Z,5.60
2019-03-17T20:25:19.876Z,5.60
2019-03-17T20:27:48.508Z,5.50
2019-03-17T20:30:20.111Z,5.50
2019-03-17T20:32:48.699Z,5.50
2019-03-17T20:35:17.262Z,5.50
2019-03-17T20:37:45.834Z,5.50
2019-03-17T20:40:18.096Z,5.50
2019-03-17T20:42:46.851Z,5.50
2019-03-17T20:45:20.334Z,5.50
2019-03-17T20:47:48.562Z,5.50
2019-03-17T20:50:20.243Z,5.60
2019-03-17T20:52:48.821Z,5.60
2019-03-17T20:55:17.465Z,5.50
2019-03-17T20:57:45.970Z,5.50
2019-03-17T21:00:18.207Z,5.50
2019-03-17T21:02:46.796Z,5.50
2019-03-17T21:05:15.430Z,5.50
2019-03-17T21:07:44.014Z,5.40
2019-03-17T21:10:14.790Z,5.40
2019-03-17T21:12:43.439Z,5.40
2019-03-17T21:15:20.152Z,5.40
2019-03-17T21:17:49.109Z,5.40
2019-03-17T21:20:22.187Z,5.30
2019-03-17T21:22:50.761Z,5.30
2019-03-17T21:25:19.361Z,5.30
2019-03-17T21:27:48.146Z,5.30
2019-03-17T21:30:21.719Z,5.30
2019-03-17T21:32:50.362Z,5.30
2019-03-17T21:35:19.706Z,5.30
2019-03-17T21:37:48.247Z,5.30
2019-03-17T21:40:16.931Z,5.20
2019-03-17T21:42:45.490Z,5.20
2019-03-17T21:45:14.511Z,5.30
2019-03-17T21:47:43.108Z,5.30
2019-03-17T21:50:19.662Z,5.30
2019-03-17T21:52:48.321Z,5.20
2019-03-17T21:55:16.898Z,5.20
2019-03-17T21:57:45.536Z,5.20
2019-03-17T22:00:18.122Z,5.20
2019-03-17T22:02:47.943Z,5.20
2019-03-17T22:05:16.531Z,5.20
2019-03-17T22:07:50.207Z,5.20
2019-03-17T22:10:20.243Z,5.10
2019-03-17T22:12:48.873Z,5.10
2019-03-17T22:15:18.295Z,5.10
2019-03-17T22:17:46.870Z,5.10
2019-03-17T22:20:15.882Z,5.00
2019-03-17T22:22:44.630Z,5.00
2019-03-17T22:25:14.163Z,5.00
2019-03-17T22:27:42.858Z,5.00
2019-03-17T22:30:17.482Z,4.90
2019-03-17T22:32:46.013Z,4.90
2019-03-17T22:35:14.596Z,4.90
2019-03-17T22:37:43.149Z,4.90
2019-03-17T22:40:21.087Z,4.90
2019-03-17T22:42:49.816Z,4.90
2019-03-17T22:45:18.472Z,4.80
2019-03-17T22:47:47.031Z,4.80
2019-03-17T22:50:19.036Z,4.80
2019-03-17T22:52:47.590Z,4.80
2019-03-17T22:55:17.422Z,4.80
2019-03-17T22:57:45.985Z,4.80
2019-03-17T23:00:35.819Z,4.80
2019-03-17T23:03:05.342Z,4.80
2019-03-17T23:05:33.968Z,4.80
2019-03-17T23:08:02.539Z,4.70
2019-03-17T23:10:32.163Z,4.70
2019-03-17T23:13:00.722Z,4.70
2019-03-17T23:15:29.599Z,4.70
2019-03-17T23:17:58.214Z,4.70
2019-03-17T23:20:26.790Z,4.70
2019-03-17T23:22:55.350Z,4.60
2019-03-17T23:25:24.226Z,4.60
2019-03-17T23:27:52.790Z,4.60
2019-03-17T23:30:25.684Z,4.50
2019-03-17T23:32:54.287Z,4.50
2019-03-17T23:35:24.048Z,4.50
2019-03-17T23:37:52.638Z,4.40
2019-03-17T23:40:21.726Z,4.40
2019-03-17T23:42:50.343Z,4.40
2019-03-17T23:45:18.927Z,4.30
2019-03-17T23:47:47.922Z,4.30
2019-03-17T23:50:16.576Z,4.30
2019-03-17T23:52:45.148Z,4.30
2019-03-17T23:55:16.639Z,4.20
2019-03-17T23:57:45.207Z,4.20
